createdAt,value
2023-04-16T00:02:06.896Z,8.80
2023-04-16T00:04:33.934Z,7.72
2023-04-16T00:07:01.129Z,7.10
2023-04-16T00:09:27.936Z,7.03
2023-04-16T00:11:55.714Z,7.60
2023-04-16T00:14:22.540Z,8.15
2023-04-16T00:16:49.834Z,7.90
2023-04-16T00:19:17.276Z,8.82
2023-04-16T00:21:44.405Z,10.32
2023-04-16T00:24:12.413Z,8.02
2023-04-16T00:26:39.371Z,8.20
2023-04-16T00:29:06.171Z,8.65
2023-04-16T00:31:34.025Z,8.50
2023-04-16T00:34:03.357Z,8.07
2023-04-16T00:36:30.567Z,9.10
2023-04-16T00:38:57.601Z,9.13
2023-04-16T00:41:24.601Z,8.82
2023-04-16T00:43:51.862Z,11.52
2023-04-16T00:46:24.032Z,8.60
2023-04-16T00:48:52.262Z,8.73
2023-04-16T00:51:22.922Z,8.75
2023-04-16T00:53:50.713Z,7.13
2023-04-16T00:56:18.419Z,8.15
2023-04-16T00:58:45.456Z,7.45
2023-04-16T01:01:14.383Z,6.47
2023-04-16T01:03:46.391Z,10.27
2023-04-16T01:06:13.828Z,5.93
2023-04-16T01:08:40.840Z,7.10
2023-04-16T01:11:08.048Z,6.70
2023-04-16T01:13:39.224Z,6.30
2023-04-16T01:16:08.315Z,7.28
2023-04-16T01:18:36.542Z,6.97
2023-04-16T01:21:04.600Z,6.28
2023-04-16T01:23:32.269Z,6.43
2023-04-16T01:25:59.155Z,6.35
2023-04-16T01:28:26.057Z,5.63
2023-04-16T01:30:52.996Z,5.70
2023-04-16T01:33:29.442Z,6.50
2023-04-16T01:35:56.355Z,6.07
2023-04-16T01:38:23.236Z,5.30
2023-04-16T01:40:50.115Z,5.13
2023-04-16T01:43:17.414Z,5.05
2023-04-16T01:45:44.272Z,7.70
2023-04-16T01:48:12.276Z,4.50
2023-04-16T01:50:39.106Z,5.22
2023-04-16T01:53:06.173Z,4.80
2023-04-16T01:55:34.346Z,5.03
2023-04-16T01:58:01.188Z,5.47
2023-04-16T02:00:32.232Z,5.00
2023-04-16T02:02:59.513Z,5.20
2023-04-16T02:05:28.244Z,6.00
2023-04-16T02:07:55.128Z,5.53
2023-04-16T02:10:22.097Z,5.63
2023-04-16T02:12:48.994Z,5.05
2023-04-16T02:15:16.294Z,5.93
2023-04-16T02:17:43.252Z,5.43
2023-04-16T02:20:11.382Z,4.97
2023-04-16T02:22:58.457Z,5.75
2023-04-16T02:25:25.299Z,5.35
2023-04-16T02:27:55.076Z,5.47
2023-04-16T02:30:29.632Z,7.55
2023-04-16T02:32:56.472Z,6.70
2023-04-16T02:35:23.277Z,6.68
2023-04-16T02:37:50.290Z,6.38
2023-04-16T02:40:17.146Z,6.95
2023-04-16T02:42:43.964Z,7.13
2023-04-16T02:45:11.626Z,7.95
2023-04-16T02:47:38.488Z,7.90
2023-04-16T02:50:06.225Z,9.70
2023-04-16T02:52:33.598Z,10.52
2023-04-16T02:55:00.759Z,9.95
2023-04-16T02:57:27.638Z,9.85
2023-04-16T02:59:54.465Z,11.85
2023-04-16T03:02:21.722Z,11.20
2023-04-16T03:04:48.697Z,14.00
2023-04-16T03:07:15.884Z,12.45
2023-04-16T03:09:42.736Z,14.73
2023-04-16T03:12:09.565Z,12.75
2023-04-16T03:14:36.357Z,16.05
2023-04-16T03:17:03.147Z,14.82
2023-04-16T03:19:30.223Z,14.00
2023-04-16T03:21:56.980Z,13.13
2023-04-16T03:24:23.902Z,13.85
2023-04-16T03:26:50.736Z,12.93
2023-04-16T03:29:18.493Z,13.27
2023-04-16T03:31:45.421Z,14.55
2023-04-16T03:34:12.300Z,12.82
2023-04-16T03:36:40.717Z,11.27
2023-04-16T03:39:07.844Z,11.63
2023-04-16T03:41:35.966Z,10.98
2023-04-16T03:44:03.299Z,11.40
2023-04-16T03:46:30.422Z,11.00
2023-04-16T03:48:57.702Z,10.55
2023-04-16T03:51:25.053Z,10.00
2023-04-16T03:53:52.120Z,9.95
2023-04-16T03:56:19.668Z,9.65
2023-04-16T03:58:46.585Z,8.25
2023-04-16T04:01:13.411Z,9.15
2023-04-16T04:03:40.920Z,9.82
2023-04-16T04:06:09.030Z,7.72
2023-04-16T04:08:35.978Z,8.18
2023-04-16T04:11:05.370Z,8.70
2023-04-16T04:13:33.978Z,7.78
2023-04-16T04:16:01.048Z,9.77
2023-04-16T04:18:28.474Z,8.13
2023-04-16T04:20:55.274Z,7.93
2023-04-16T04:23:26.692Z,7.00
2023-04-16T04:25:53.533Z,6.63
2023-04-16T04:28:22.823Z,7.03
2023-04-16T04:30:49.856Z,7.03
2023-04-16T04:33:16.711Z,8.60
2023-04-16T04:35:43.515Z,7.72
2023-04-16T04:38:10.396Z,8.05
2023-04-16T04:40:37.286Z,8.55
2023-04-16T04:43:04.298Z,8.80
2023-04-16T04:45:32.172Z,8.95
2023-04-16T04:47:59.401Z,11.02
2023-04-16T04:50:26.330Z,15.30
2023-04-16T04:52:53.313Z,16.73
2023-04-16T04:55:20.468Z,16.80
2023-04-16T04:57:49.128Z,16.73
2023-04-16T05:00:16.396Z,16.52
2023-04-16T05:02:53.839Z,17.75
2023-04-16T05:05:20.874Z,19.33
2023-04-16T05:07:47.690Z,17.13
2023-04-16T05:10:14.733Z,16.20
2023-04-16T05:12:41.585Z,18.77
2023-04-16T05:15:09.079Z,18.15
2023-04-16T05:17:35.899Z,20.83
2023-04-16T05:20:02.775Z,16.13
2023-04-16T05:22:29.739Z,21.77
2023-04-16T05:24:56.538Z,18.65
2023-04-16T05:27:23.393Z,18.58
2023-04-16T05:29:50.197Z,20.35
2023-04-16T05:32:17.050Z,20.88
2023-04-16T05:34:43.876Z,20.50
2023-04-16T05:37:10.702Z,18.63
2023-04-16T05:39:37.623Z,21.40
2023-04-16T05:42:04.416Z,22.15
2023-04-16T05:44:31.378Z,20.02
2023-04-16T05:46:58.200Z,18.15
2023-04-16T05:49:25.026Z,21.50
2023-04-16T05:51:52.006Z,22.00
2023-04-16T05:54:18.779Z,21.75
2023-04-16T05:56:45.626Z,20.17
2023-04-16T05:59:12.503Z,19.52
2023-04-16T06:01:39.307Z,24.23
2023-04-16T06:04:06.310Z,24.08
2023-04-16T06:06:33.401Z,22.67
2023-04-16T06:09:00.172Z,24.40
2023-04-16T06:11:27.471Z,22.25
2023-04-16T06:13:54.264Z,22.48
2023-04-16T06:16:21.123Z,25.38
2023-04-16T06:18:48.272Z,23.95
2023-04-16T06:21:15.595Z,20.70
2023-04-16T06:23:42.401Z,22.00
2023-04-16T06:26:09.212Z,22.30
2023-04-16T06:28:36.086Z,23.08
2023-04-16T06:31:03.091Z,22.60
2023-04-16T06:33:29.932Z,25.45
2023-04-16T06:35:56.721Z,22.70
2023-04-16T06:38:23.482Z,24.48
2023-04-16T06:40:50.348Z,19.60
2023-04-16T06:43:17.898Z,20.45
2023-04-16T06:45:45.314Z,19.48
2023-04-16T06:48:12.109Z,22.77
2023-04-16T06:50:39.006Z,20.30
2023-04-16T06:53:05.839Z,19.40
2023-04-16T06:55:32.651Z,19.80
2023-04-16T06:57:59.480Z,20.83
2023-04-16T07:00:26.379Z,20.90
2023-04-16T07:02:54.252Z,18.27
2023-04-16T07:05:22.544Z,20.92
2023-04-16T07:07:49.435Z,21.25
2023-04-16T07:10:16.417Z,19.67
2023-04-16T07:12:43.268Z,18.67
2023-04-16T07:15:10.949Z,17.85
2023-04-16T07:17:38.119Z,17.08
2023-04-16T07:20:06.012Z,16.98
2023-04-16T07:22:32.838Z,20.38
2023-04-16T07:24:59.612Z,19.55
2023-04-16T07:27:26.425Z,19.92
2023-04-16T07:29:54.756Z,18.17
2023-04-16T07:32:22.721Z,21.55
2023-04-16T07:34:49.630Z,19.73
2023-04-16T07:37:16.452Z,16.75
2023-04-16T07:39:43.238Z,18.73
2023-04-16T07:42:10.075Z,17.95
2023-04-16T07:44:37.171Z,19.65
2023-04-16T07:47:05.523Z,20.13
2023-04-16T07:49:32.694Z,20.83
2023-04-16T07:51:59.503Z,15.70
2023-04-16T07:54:28.857Z,19.50
2023-04-16T07:56:56.044Z,18.52
2023-04-16T07:59:24.304Z,17.48
2023-04-16T08:01:53.724Z,16.77
2023-04-16T08:04:25.026Z,17.80
2023-04-16T08:06:52.793Z,18.42
2023-04-16T08:09:21.562Z,17.98
2023-04-16T08:11:49.742Z,16.38
2023-04-16T08:14:17.486Z,16.17
2023-04-16T08:16:44.604Z,16.42
2023-04-16T08:19:11.506Z,15.43
2023-04-16T08:21:38.571Z,16.80
2023-04-16T08:24:05.496Z,19.42
2023-04-16T08:26:32.391Z,17.30
2023-04-16T08:28:59.237Z,16.90
2023-04-16T08:31:26.219Z,17.23
2023-04-16T08:33:53.012Z,16.48
2023-04-16T08:36:19.781Z,17.02
2023-04-16T08:38:46.881Z,17.60
2023-04-16T08:41:13.952Z,16.00
2023-04-16T08:43:45.435Z,14.30
2023-04-16T08:46:12.708Z,15.20
2023-04-16T08:48:42.831Z,14.85
2023-04-16T08:53:52.631Z,19.48
2023-04-16T08:56:24.129Z,17.23
2023-04-16T08:58:52.906Z,19.60
2023-04-16T09:01:20.241Z,18.05
2023-04-16T09:03:48.537Z,17.15
2023-04-16T09:06:16.601Z,17.42
2023-04-16T09:08:47.771Z,16.95
2023-04-16T09:11:17.600Z,16.38
2023-04-16T09:13:46.285Z,16.88
2023-04-16T09:16:14.698Z,20.58
2023-04-16T09:18:41.781Z,18.38
2023-04-16T09:21:11.148Z,18.58
2023-04-16T09:23:38.827Z,16.40
2023-04-16T09:26:06.246Z,18.80
2023-04-16T09:28:45.326Z,16.30
2023-04-16T09:31:18.558Z,16.97
2023-04-16T09:34:05.939Z,16.60
2023-04-16T09:36:33.563Z,19.42
2023-04-16T09:39:00.703Z,16.30
2023-04-16T09:41:30.742Z,15.50
2023-04-16T09:44:04.486Z,17.35
2023-04-16T09:46:37.484Z,17.20
2023-04-16T09:49:34.321Z,17.98
2023-04-16T09:52:02.235Z,17.85
2023-04-16T09:54:29.073Z,19.92
2023-04-16T09:56:57.276Z,17.45
2023-04-16T09:59:25.323Z,15.90
2023-04-16T10:01:57.261Z,17.00
2023-04-16T10:04:52.080Z,18.52
2023-04-16T10:07:19.662Z,19.88
2023-04-16T10:09:48.586Z,18.55
2023-04-16T10:12:16.451Z,18.02
2023-04-16T10:14:43.609Z,16.83
2023-04-16T10:17:10.605Z,18.58
2023-04-16T10:19:37.632Z,19.85
2023-04-16T10:22:04.814Z,18.27
2023-04-16T10:24:33.732Z,18.48
2023-04-16T10:27:01.100Z,17.90
2023-04-16T10:29:30.716Z,17.85
2023-04-16T10:31:58.537Z,15.82
2023-04-16T10:34:26.346Z,17.20
2023-04-16T10:36:54.254Z,14.82
2023-04-16T10:39:24.195Z,16.58
2023-04-16T10:44:19.443Z,15.85
2023-04-16T10:46:49.687Z,18.02
2023-04-16T10:49:25.022Z,15.10
2023-04-16T10:52:03.127Z,14.68
2023-04-16T10:54:31.598Z,14.43
2023-04-16T10:57:04.376Z,15.75
2023-04-16T10:59:34.867Z,15.85
2023-04-16T11:02:07.786Z,16.27
2023-04-16T11:04:40.332Z,14.10
2023-04-16T11:07:16.405Z,14.40
2023-04-16T11:10:02.194Z,14.63
2023-04-16T11:12:44.881Z,19.02
2023-04-16T11:15:19.080Z,15.30
2023-04-16T11:17:52.000Z,14.82
2023-04-16T11:20:24.370Z,14.35
2023-04-16T11:22:56.544Z,13.85
2023-04-16T11:25:26.580Z,15.40
2023-04-16T11:30:31.278Z,13.18
2023-04-16T11:32:58.164Z,14.85
2023-04-16T11:35:25.104Z,13.68
2023-04-16T11:37:57.192Z,12.88
2023-04-16T11:40:24.533Z,15.05
2023-04-16T11:42:51.341Z,13.70
2023-04-16T11:45:21.028Z,11.57
2023-04-16T11:47:52.537Z,13.13
2023-04-16T11:50:25.093Z,12.85
2023-04-16T11:52:54.630Z,11.00
2023-04-16T11:55:22.500Z,9.75
2023-04-16T11:57:51.671Z,7.38
2023-04-16T12:00:24.474Z,6.90
2023-04-16T12:02:55.625Z,6.47
2023-04-16T12:05:38.910Z,6.53
2023-04-16T12:08:08.972Z,7.47
2023-04-16T12:13:12.682Z,5.27
2023-04-16T12:15:50.794Z,5.60
2023-04-16T12:18:23.587Z,5.63
2023-04-16T12:20:53.576Z,5.43
2023-04-16T12:25:55.224Z,5.57
2023-04-16T12:28:38.210Z,5.93
2023-04-16T12:31:05.924Z,5.28
2023-04-16T12:33:33.010Z,6.45
2023-04-16T12:35:59.942Z,5.07
2023-04-16T12:38:27.537Z,5.70
2023-04-16T12:40:57.009Z,6.07
2023-04-16T12:43:24.462Z,5.20
2023-04-16T12:45:51.268Z,5.68
2023-04-16T12:48:18.140Z,4.90
2023-04-16T12:50:44.969Z,6.15
2023-04-16T12:53:12.288Z,5.65
2023-04-16T12:55:39.308Z,6.95
2023-04-16T12:58:06.726Z,6.07
2023-04-16T13:00:33.546Z,5.82
2023-04-16T13:03:00.476Z,5.22
2023-04-16T13:05:27.592Z,4.60
2023-04-16T13:07:54.594Z,6.85
2023-04-16T13:10:23.315Z,5.13
2023-04-16T13:12:50.206Z,4.95
2023-04-16T13:15:17.020Z,4.93
2023-04-16T13:17:43.886Z,4.93
2023-04-16T13:20:11.083Z,5.22
2023-04-16T13:22:38.023Z,5.65
2023-04-16T13:25:05.808Z,5.78
2023-04-16T13:27:32.613Z,6.30
2023-04-16T13:29:59.482Z,5.53
2023-04-16T13:32:26.500Z,7.78
2023-04-16T13:34:53.326Z,6.13
2023-04-16T13:37:20.163Z,5.28
2023-04-16T13:39:47.264Z,5.50
2023-04-16T13:42:14.093Z,6.55
2023-04-16T13:44:40.984Z,5.63
2023-04-16T13:47:08.001Z,5.93
2023-04-16T13:49:36.019Z,8.10
2023-04-16T13:52:03.548Z,7.93
2023-04-16T13:54:30.363Z,6.75
2023-04-16T13:56:57.355Z,12.60
2023-04-16T13:59:24.282Z,8.45
2023-04-16T14:01:51.556Z,7.60
2023-04-16T14:04:18.577Z,7.97
2023-04-16T14:06:45.606Z,8.98
2023-04-16T14:09:12.729Z,8.93
2023-04-16T14:11:39.726Z,8.05
2023-04-16T14:14:06.629Z,8.63
2023-04-16T14:16:34.778Z,8.25
2023-04-16T14:19:01.594Z,10.73
2023-04-16T14:21:28.716Z,8.10
2023-04-16T14:23:55.729Z,7.47
2023-04-16T14:26:22.813Z,8.15
2023-04-16T14:28:50.947Z,7.25
2023-04-16T14:31:18.146Z,8.15
2023-04-16T14:33:45.826Z,10.52
2023-04-16T14:36:12.793Z,7.18
2023-04-16T14:38:40.711Z,9.20
2023-04-16T14:41:07.524Z,6.93
2023-04-16T14:43:35.656Z,7.18
2023-04-16T14:46:04.876Z,7.43
2023-04-16T14:48:31.962Z,8.13
2023-04-16T14:50:58.784Z,7.68
2023-04-16T14:53:25.627Z,6.68
2023-04-16T14:55:53.326Z,8.15
2023-04-16T14:58:20.172Z,9.05
2023-04-16T15:00:47.009Z,7.70
2023-04-16T15:03:13.996Z,8.25
2023-04-16T15:05:41.097Z,7.85
2023-04-16T15:08:07.978Z,8.63
2023-04-16T15:10:35.002Z,7.82
2023-04-16T15:13:01.934Z,10.30
2023-04-16T15:15:29.180Z,9.43
2023-04-16T15:17:56.986Z,10.25
2023-04-16T15:20:24.240Z,10.50
2023-04-16T15:22:51.029Z,11.68
2023-04-16T15:25:17.839Z,11.98
2023-04-16T15:27:44.978Z,12.32
2023-04-16T15:30:12.990Z,12.15
2023-04-16T15:32:39.846Z,15.10
2023-04-16T15:35:08.210Z,12.82
2023-04-16T15:37:36.113Z,15.45
2023-04-16T15:40:05.466Z,15.13
2023-04-16T15:42:32.321Z,15.38
2023-04-16T15:44:59.225Z,15.45
2023-04-16T15:47:26.089Z,14.65
2023-04-16T15:49:53.082Z,12.55
2023-04-16T15:52:20.325Z,14.40
2023-04-16T15:54:49.614Z,13.27
2023-04-16T15:57:16.419Z,12.82
2023-04-16T15:59:50.128Z,12.98
2023-04-16T16:02:26.541Z,11.32
2023-04-16T16:04:53.640Z,13.20
2023-04-16T16:07:20.719Z,15.77
2023-04-16T16:09:48.005Z,15.13
2023-04-16T16:12:15.291Z,15.85
2023-04-16T16:14:44.154Z,14.98
2023-04-16T16:17:10.943Z,15.68
2023-04-16T16:19:37.751Z,17.23
2023-04-16T16:22:04.727Z,16.83
2023-04-16T16:24:31.553Z,19.08
2023-04-16T16:26:58.429Z,17.75
2023-04-16T16:29:25.504Z,18.15
2023-04-16T16:31:52.341Z,16.15
2023-04-16T16:34:21.254Z,15.75
2023-04-16T16:36:49.008Z,19.67
2023-04-16T16:39:15.926Z,18.23
2023-04-16T16:41:42.897Z,18.05
2023-04-16T16:44:09.734Z,19.80
2023-04-16T16:46:37.121Z,21.50
2023-04-16T16:49:05.896Z,17.85
2023-04-16T16:51:33.789Z,16.25
2023-04-16T16:54:00.625Z,17.20
2023-04-16T16:56:27.902Z,17.55
2023-04-16T16:58:54.750Z,17.55
2023-04-16T17:01:21.586Z,20.75
2023-04-16T17:03:48.705Z,21.33
2023-04-16T17:06:15.642Z,17.48
2023-04-16T17:08:43.509Z,21.77
2023-04-16T17:11:10.580Z,23.25
2023-04-16T17:13:37.647Z,24.63
2023-04-16T17:16:04.533Z,25.00
2023-04-16T17:18:31.301Z,25.67
2023-04-16T17:20:58.182Z,27.23
2023-04-16T17:23:24.957Z,27.35
2023-04-16T17:25:51.754Z,25.30
2023-04-16T17:28:18.633Z,28.33
2023-04-16T17:30:47.096Z,24.00
2023-04-16T17:33:14.439Z,21.15
2023-04-16T17:35:41.370Z,24.80
2023-04-16T17:38:08.389Z,22.77
2023-04-16T17:40:35.248Z,23.63
2023-04-16T17:43:02.121Z,26.88
2023-04-16T17:45:28.892Z,22.65
2023-04-16T17:47:55.744Z,27.10
2023-04-16T17:50:22.714Z,21.55
2023-04-16T17:52:49.768Z,23.50
2023-04-16T17:55:16.767Z,27.00
2023-04-16T17:57:44.669Z,23.73
2023-04-16T18:00:12.458Z,27.70
2023-04-16T18:02:43.657Z,22.55
2023-04-16T18:05:11.008Z,21.67
2023-04-16T18:07:38.877Z,21.70
2023-04-16T18:10:06.780Z,25.38
2023-04-16T18:12:33.848Z,23.70
2023-04-16T18:15:00.690Z,24.13
2023-04-16T18:17:29.633Z,21.83
2023-04-16T18:19:57.340Z,23.80
2023-04-16T18:22:25.702Z,23.02
2023-04-16T18:24:54.754Z,23.70
2023-04-16T18:27:21.567Z,23.73
2023-04-16T18:29:49.438Z,24.48
2023-04-16T18:32:16.662Z,24.48
2023-04-16T18:34:44.102Z,25.77
2023-04-16T18:37:11.173Z,24.40
2023-04-16T18:39:37.971Z,25.98
2023-04-16T18:42:05.018Z,25.85
2023-04-16T18:44:33.158Z,27.42
2023-04-16T18:47:00.460Z,26.60
2023-04-16T18:49:27.288Z,31.95
2023-04-16T18:51:59.262Z,26.48
2023-04-16T18:54:26.181Z,27.40
2023-04-16T18:56:52.952Z,27.73
2023-04-16T18:59:20.730Z,31.10
2023-04-16T19:01:47.910Z,25.75
2023-04-16T19:04:14.942Z,28.58
2023-04-16T19:06:41.795Z,25.42
2023-04-16T19:09:11.302Z,26.23
2023-04-16T19:11:38.456Z,26.75
2023-04-16T19:14:05.791Z,26.38
2023-04-16T19:16:32.593Z,27.27
2023-04-16T19:18:59.480Z,24.00
2023-04-16T19:21:27.659Z,22.15
2023-04-16T19:23:54.861Z,27.20
2023-04-16T19:26:23.165Z,24.75
2023-04-16T19:28:49.937Z,24.80
2023-04-16T19:31:17.301Z,25.48
2023-04-16T19:33:44.090Z,24.02
2023-04-16T19:36:11.308Z,22.60
2023-04-16T19:38:38.239Z,23.05
2023-04-16T19:41:05.164Z,23.45
2023-04-16T19:43:32.028Z,22.38
2023-04-16T19:45:59.313Z,20.35
2023-04-16T19:48:26.555Z,23.08
2023-04-16T19:50:55.656Z,25.42
2023-04-16T19:53:22.540Z,22.70
2023-04-16T19:55:49.572Z,23.17
2023-04-16T19:58:16.692Z,23.60
2023-04-16T20:00:43.746Z,25.25
2023-04-16T20:03:10.706Z,21.20
2023-04-16T20:05:37.554Z,22.73
2023-04-16T20:08:04.661Z,21.40
2023-04-16T20:10:32.550Z,23.23
2023-04-16T20:13:00.013Z,24.60
2023-04-16T20:15:27.151Z,23.95
2023-04-16T20:17:56.022Z,21.08
2023-04-16T20:20:23.473Z,22.40
2023-04-16T20:22:50.619Z,22.60
2023-04-16T20:25:20.543Z,24.25
2023-04-16T20:27:47.437Z,20.85
2023-04-16T20:30:14.986Z,26.65
2023-04-16T20:32:41.908Z,21.00
2023-04-16T20:35:11.260Z,20.50
2023-04-16T20:37:38.767Z,19.92
2023-04-16T20:40:09.425Z,19.48
2023-04-16T20:42:36.296Z,19.90
2023-04-16T20:45:03.435Z,22.70
2023-04-16T20:47:30.396Z,22.80
2023-04-16T20:49:58.094Z,24.33
2023-04-16T20:52:24.897Z,21.02
2023-04-16T20:54:52.264Z,21.85
2023-04-16T20:57:19.346Z,24.98
2023-04-16T20:59:46.287Z,23.25
2023-04-16T21:02:13.224Z,20.60
2023-04-16T21:04:40.377Z,23.90
2023-04-16T21:07:07.337Z,21.35
2023-04-16T21:09:34.183Z,21.50
2023-04-16T21:12:01.659Z,25.15
2023-04-16T21:14:28.495Z,20.10
2023-04-16T21:16:55.461Z,22.88
2023-04-16T21:19:22.450Z,21.13
2023-04-16T21:21:49.256Z,20.77
2023-04-16T21:24:16.038Z,23.58
2023-04-16T21:26:42.818Z,20.95
2023-04-16T21:29:09.733Z,21.95
2023-04-16T21:31:36.873Z,24.65
2023-04-16T21:34:03.713Z,20.05
2023-04-16T21:36:31.916Z,22.02
2023-04-16T21:38:58.774Z,23.05
2023-04-16T21:41:25.566Z,21.17
2023-04-16T21:43:52.366Z,20.88
2023-04-16T21:46:19.306Z,22.85
2023-04-16T21:48:48.228Z,22.65
2023-04-16T21:51:15.643Z,24.98
2023-04-16T21:53:42.407Z,23.45
2023-04-16T21:56:09.181Z,22.15
2023-04-16T21:58:35.934Z,21.75
2023-04-16T22:01:02.888Z,20.65
2023-04-16T22:03:31.154Z,22.33
2023-04-16T22:06:01.846Z,23.17
2023-04-16T22:08:29.462Z,25.35
2023-04-16T22:10:58.749Z,23.48
2023-04-16T22:13:26.362Z,23.75
2023-04-16T22:15:55.380Z,23.83
2023-04-16T22:18:25.434Z,22.70
2023-04-16T22:20:55.789Z,21.48
2023-04-16T22:23:24.955Z,23.60
2023-04-16T22:25:55.151Z,24.48
2023-04-16T22:28:22.238Z,23.20
2023-04-16T22:30:49.019Z,25.33
2023-04-16T22:33:16.183Z,22.83
2023-04-16T22:35:43.024Z,23.02
2023-04-16T22:38:10.271Z,24.13
2023-04-16T22:40:37.131Z,24.17
2023-04-16T22:43:04.186Z,24.20
2023-04-16T22:45:31.118Z,24.20
2023-04-16T22:47:58.044Z,24.25
2023-04-16T22:50:24.829Z,23.63
2023-04-16T22:52:51.629Z,23.90
2023-04-16T22:55:18.519Z,23.58
2023-04-16T22:57:45.825Z,25.52
2023-04-16T23:00:16.381Z,26.92
2023-04-16T23:02:44.104Z,24.10
2023-04-16T23:05:11.547Z,24.70
2023-04-16T23:07:38.591Z,25.88
2023-04-16T23:10:06.192Z,24.08
2023-04-16T23:12:33.110Z,23.92
2023-04-16T23:15:00.533Z,23.13
2023-04-16T23:17:28.102Z,24.77
2023-04-16T23:19:55.438Z,27.85
2023-04-16T23:22:22.236Z,23.10
2023-04-16T23:24:49.047Z,25.23
2023-04-16T23:27:15.891Z,24.67
2023-04-16T23:29:42.679Z,25.58
2023-04-16T23:32:09.519Z,22.00
2023-04-16T23:34:36.491Z,24.80
2023-04-16T23:37:03.285Z,22.08
2023-04-16T23:39:30.264Z,23.38
2023-04-16T23:41:57.488Z,22.90
2023-04-16T23:44:24.366Z,25.00
2023-04-16T23:46:51.220Z,25.15
2023-04-16T23:49:18.050Z,22.83
2023-04-16T23:51:44.876Z,24.20
2023-04-16T23:54:11.690Z,22.88
2023-04-16T23:56:38.593Z,22.00
2023-04-16T23:59:05.559Z,22.98
